createdAt,value
2017-11-29T18:17:49.740Z,97080.13
2017-11-29T18:20:18.002Z,97078.53
2017-11-29T18:22:46.424Z,97078.38
2017-11-29T18:25:14.729Z,97082.39
2017-11-29T18:27:42.990Z,97079.44
2017-11-29T18:30:11.252Z,97086.77
2017-11-29T18:32:40.279Z,97084.91
2017-11-29T18:35:08.565Z,97077.39
2017-11-29T18:37:36.900Z,97082.38
2017-11-29T18:40:05.199Z,97086.98
2017-11-29T18:42:33.455Z,97089.18
2017-11-29T18:45:02.479Z,97087.40
2017-11-29T18:47:30.731Z,97092.88
2017-11-29T18:49:58.998Z,97088.48
2017-11-29T18:52:27.316Z,97095.80
2017-11-29T18:54:55.583Z,97096.73
2017-11-29T18:57:23.843Z,97091.33
2017-11-29T18:59:52.106Z,97098.95
2017-11-29T19:02:20.384Z,97104.89
2017-11-29T19:04:48.659Z,97105.20
2017-11-29T19:07:17.666Z,97112.16
2017-11-29T19:09:45.935Z,97109.21
2017-11-29T19:12:14.192Z,97110.14
2017-11-29T19:14:43.223Z,97109.75
2017-11-29T19:17:11.481Z,97112.05
2017-11-29T19:19:39.740Z,97108.69
2017-11-29T19:22:08.764Z,97111.70
2017-11-29T19:24:37.011Z,97109.72
2017-11-29T19:27:05.373Z,97109.35
2017-11-29T19:29:34.403Z,97112.12
2017-11-29T19:32:02.675Z,97117.89
2017-11-29T19:34:31.576Z,97115.44
2017-11-29T19:36:59.844Z,97118.38
2017-11-29T19:39:30.063Z,97121.23
2017-11-29T19:41:58.348Z,97127.08
2017-11-29T19:44:27.370Z,97128.73
2017-11-29T19:47:09.204Z,97127.79
2017-11-29T19:49:39.382Z,97126.73
2017-11-29T19:52:07.672Z,97127.31
2017-11-29T19:54:35.927Z,97126.22
2017-11-29T19:57:04.199Z,97121.83
2017-11-29T19:59:32.475Z,97129.53
2017-11-29T20:02:00.734Z,97126.39
2017-11-29T20:04:28.983Z,97120.96
2017-11-29T20:07:05.163Z,97121.20
2017-11-29T20:09:33.606Z,97122.17
2017-11-29T20:12:02.003Z,97120.22
2017-11-29T20:14:31.111Z,97125.05
2017-11-29T20:16:59.385Z,97124.70
2017-11-29T20:19:27.645Z,97124.20
2017-11-29T20:21:57.009Z,97120.87
2017-11-29T20:24:25.343Z,97131.80
2017-11-29T20:26:53.768Z,97130.56
2017-11-29T20:29:22.147Z,97131.70
2017-11-29T20:31:50.551Z,97128.34
2017-11-29T20:34:19.669Z,97132.81
2017-11-29T20:36:48.065Z,97131.34
2017-11-29T20:39:16.463Z,97133.10
2017-11-29T20:41:44.820Z,97134.88
2017-11-29T20:44:13.177Z,97127.70
2017-11-29T20:46:41.533Z,97127.94
2017-11-29T20:49:10.657Z,97135.87
2017-11-29T20:51:38.979Z,97132.06
2017-11-29T20:54:07.242Z,97130.69
2017-11-29T20:56:35.507Z,97132.12
2017-11-29T20:59:03.771Z,97132.19
2017-11-29T21:01:32.089Z,97134.39
2017-11-29T21:04:00.359Z,97130.78
2017-11-29T21:06:28.624Z,97138.67
2017-11-29T21:08:57.052Z,97139.34
2017-11-29T21:11:26.291Z,97137.38
2017-11-29T21:13:54.556Z,97141.03
2017-11-29T21:16:22.826Z,97139.00
2017-11-29T21:18:51.146Z,97134.04
2017-11-29T21:21:19.407Z,97134.84
2017-11-29T21:23:47.681Z,97127.47
2017-11-29T21:26:16.026Z,97136.30
2017-11-29T21:28:44.305Z,97130.77
2017-11-29T21:31:12.572Z,97127.34
2017-11-29T21:33:41.617Z,97125.94
2017-11-29T21:36:09.879Z,97126.44
2017-11-29T21:38:38.134Z,97122.23
2017-11-29T21:41:06.603Z,97119.84
2017-11-29T21:43:34.859Z,97123.50
2017-11-29T21:46:03.893Z,97124.20
2017-11-29T21:48:32.150Z,97119.16
2017-11-29T21:51:00.421Z,97115.70
2017-11-29T21:53:28.685Z,97109.02
2017-11-29T21:55:57.712Z,97109.68
2017-11-29T21:58:25.972Z,97112.22
2017-11-29T22:00:54.243Z,97109.56
2017-11-29T22:03:22.508Z,97106.74
2017-11-29T22:05:51.579Z,97109.91
2017-11-29T22:08:19.847Z,97112.22
2017-11-29T22:10:48.108Z,97107.03
2017-11-29T22:13:16.384Z,97115.89
2017-11-29T22:15:44.679Z,97107.47
2017-11-29T22:18:12.879Z,97110.67
2017-11-29T22:20:41.918Z,97105.34
2017-11-29T22:23:10.166Z,97104.52
2017-11-29T22:25:38.437Z,97109.38
2017-11-29T22:28:06.730Z,97112.06
2017-11-29T22:30:35.809Z,97119.85
2017-11-29T22:33:04.834Z,97110.73
2017-11-29T22:35:33.109Z,97116.70
2017-11-29T22:38:01.363Z,97117.66
2017-11-29T22:40:29.631Z,97109.27
2017-11-29T22:42:57.890Z,97110.09
2017-11-29T22:45:26.926Z,97095.89
2017-11-29T22:47:55.183Z,97105.68
2017-11-29T22:50:23.439Z,97101.84
2017-11-29T22:52:52.476Z,97095.28
2017-11-29T22:55:20.735Z,97093.73
2017-11-29T22:57:49.036Z,97093.24
2017-11-29T23:00:28.091Z,97075.83
2017-11-29T23:02:56.359Z,97074.77
2017-11-29T23:05:24.625Z,97075.84
2017-11-29T23:07:52.902Z,97070.62
2017-11-29T23:10:21.157Z,97071.47
2017-11-29T23:12:49.442Z,97073.73
2017-11-29T23:15:17.731Z,97070.56
2017-11-29T23:17:46.079Z,97076.92
2017-11-29T23:20:14.377Z,97067.28
2017-11-29T23:22:42.711Z,97063.45
2017-11-29T23:25:11.034Z,97064.88
2017-11-29T23:27:39.370Z,97055.06
2017-11-29T23:30:07.716Z,97054.28
2017-11-29T23:32:36.801Z,97057.03
2017-11-29T23:35:05.140Z,97053.27
2017-11-29T23:37:33.475Z,97059.05
2017-11-29T23:40:01.817Z,97055.99
2017-11-29T23:42:30.201Z,97055.15
2017-11-29T23:44:58.516Z,97052.09
2017-11-29T23:47:27.639Z,97049.97
2017-11-29T23:49:55.951Z,97052.50
2017-11-29T23:52:24.247Z,97054.95
2017-11-29T23:54:53.372Z,97052.28
2017-11-29T23:57:21.636Z,97054.56
2017-11-29T23:59:50.722Z,97048.70
